sensor_id;sensor_type;location;lat;lon;timestamp;temperature;humidity
15749;DHT22;7976;52.526;13.326;2023-11-22T00:00:14;2.00;99.90
15749;DHT22;7976;52.526;13.326;2023-11-22T00:02:41;2.00;99.90
15749;DHT22;7976;52.526;13.326;2023-11-22T00:05:08;2.00;99.90
15749;DHT22;7976;52.526;13.326;2023-11-22T00:07:36;2.00;99.90
15749;DHT22;7976;52.526;13.326;2023-11-22T00:10:04;2.00;99.90
15749;DHT22;7976;52.526;13.326;2023-11-22T00:12:32;2.00;99.90
15749;DHT22;7976;52.526;13.326;2023-11-22T00:15:02;2.00;99.90
15749;DHT22;7976;52.526;13.326;2023-11-22T00:17:32;2.00;99.90
15749;DHT22;7976;52.526;13.326;2023-11-22T00:19:59;2.00;99.90
15749;DHT22;7976;52.526;13.326;2023-11-22T00:22:31;2.00;99.90
15749;DHT22;7976;52.526;13.326;2023-11-22T00:24:58;1.90;99.90
15749;DHT22;7976;52.526;13.326;2023-11-22T00:27:26;1.90;99.90
15749;DHT22;7976;52.526;13.326;2023-11-22T00:29:53;1.90;99.90
15749;DHT22;7976;52.526;13.326;2023-11-22T00:32:20;1.90;99.90
15749;DHT22;7976;52.526;13.326;2023-11-22T00:34:48;2.00;99.90
15749;DHT22;7976;52.526;13.326;2023-11-22T00:37:15;2.00;99.90
15749;DHT22;7976;52.526;13.326;2023-11-22T00:39:42;2.00;99.90
15749;DHT22;7976;52.526;13.326;2023-11-22T00:42:09;2.00;99.90
15749;DHT22;7976;52.526;13.326;2023-11-22T00:44:36;2.00;99.90
15749;DHT22;7976;52.526;13.326;2023-11-22T00:47:03;2.00;99.90
15749;DHT22;7976;52.526;13.326;2023-11-22T00:49:32;1.90;99.90
15749;DHT22;7976;52.526;13.326;2023-11-22T00:52:00;1.90;99.90
15749;DHT22;7976;52.526;13.326;2023-11-22T00:54:28;1.90;99.90
15749;DHT22;7976;52.526;13.326;2023-11-22T00:56:55;1.90;99.90
15749;DHT22;7976;52.526;13.326;2023-11-22T00:59:22;1.90;99.90
15749;DHT22;7976;52.526;13.326;2023-11-22T01:01:48;1.90;99.90
15749;DHT22;7976;52.526;13.326;2023-11-22T01:04:15;1.90;99.90
15749;DHT22;7976;52.526;13.326;2023-11-22T01:06:42;1.90;99.90
15749;DHT22;7976;52.526;13.326;2023-11-22T01:09:12;1.90;99.90
15749;DHT22;7976;52.526;13.326;2023-11-22T01:11:39;1.80;99.90
15749;DHT22;7976;52.526;13.326;2023-11-22T01:14:06;1.80;99.90
15749;DHT22;7976;52.526;13.326;2023-11-22T01:16:33;1.70;99.90
15749;DHT22;7976;52.526;13.326;2023-11-22T01:19:02;1.70;99.90
15749;DHT22;7976;52.526;13.326;2023-11-22T01:21:29;1.70;99.90
15749;DHT22;7976;52.526;13.326;2023-11-22T01:23:56;1.60;99.90
15749;DHT22;7976;52.526;13.326;2023-11-22T01:26:24;1.60;99.90
15749;DHT22;7976;52.526;13.326;2023-11-22T01:28:51;1.60;99.90
15749;DHT22;7976;52.526;13.326;2023-11-22T01:31:18;1.50;99.90
15749;DHT22;7976;52.526;13.326;2023-11-22T01:33:46;1.50;99.90
15749;DHT22;7976;52.526;13.326;2023-11-22T01:36:13;1.50;99.90
15749;DHT22;7976;52.526;13.326;2023-11-22T01:38:42;1.50;99.90
15749;DHT22;7976;52.526;13.326;2023-11-22T01:41:11;1.40;99.90
15749;DHT22;7976;52.526;13.326;2023-11-22T01:43:40;1.40;99.90
15749;DHT22;7976;52.526;13.326;2023-11-22T01:46:07;1.30;99.90
15749;DHT22;7976;52.526;13.326;2023-11-22T01:48:35;1.30;99.90
15749;DHT22;7976;52.526;13.326;2023-11-22T01:51:03;1.30;99.90
15749;DHT22;7976;52.526;13.326;2023-11-22T01:53:31;1.30;99.90
15749;DHT22;7976;52.526;13.326;2023-11-22T01:55:58;1.20;99.90
15749;DHT22;7976;52.526;13.326;2023-11-22T01:58:26;1.20;99.90
15749;DHT22;7976;52.526;13.326;2023-11-22T02:00:55;1.20;99.90
15749;DHT22;7976;52.526;13.326;2023-11-22T02:03:27;1.20;99.90
15749;DHT22;7976;52.526;13.326;2023-11-22T02:05:56;1.20;99.90
15749;DHT22;7976;52.526;13.326;2023-11-22T02:08:24;1.20;99.90
15749;DHT22;7976;52.526;13.326;2023-11-22T02:10:57;1.10;99.90
15749;DHT22;7976;52.526;13.326;2023-11-22T02:13:25;1.10;99.90
15749;DHT22;7976;52.526;13.326;2023-11-22T02:15:52;1.10;99.90
15749;DHT22;7976;52.526;13.326;2023-11-22T02:18:23;1.10;99.90
15749;DHT22;7976;52.526;13.326;2023-11-22T02:20:50;1.10;99.90
15749;DHT22;7976;52.526;13.326;2023-11-22T02:23:18;1.10;99.90
15749;DHT22;7976;52.526;13.326;2023-11-22T02:25:45;1.00;99.90
15749;DHT22;7976;52.526;13.326;2023-11-22T02:28:12;1.00;99.90
15749;DHT22;7976;52.526;13.326;2023-11-22T02:30:39;1.00;99.90
15749;DHT22;7976;52.526;13.326;2023-11-22T02:33:07;1.00;99.90
15749;DHT22;7976;52.526;13.326;2023-11-22T02:35:34;1.00;99.90
15749;DHT22;7976;52.526;13.326;2023-11-22T02:38:01;1.00;99.90
15749;DHT22;7976;52.526;13.326;2023-11-22T02:40:30;1.00;99.90
15749;DHT22;7976;52.526;13.326;2023-11-22T02:42:57;1.00;99.90
15749;DHT22;7976;52.526;13.326;2023-11-22T02:45:26;1.00;99.90
15749;DHT22;7976;52.526;13.326;2023-11-22T02:47:54;1.00;99.90
15749;DHT22;7976;52.526;13.326;2023-11-22T02:50:21;1.00;99.90
15749;DHT22;7976;52.526;13.326;2023-11-22T02:52:48;1.00;99.90
15749;DHT22;7976;52.526;13.326;2023-11-22T02:55:15;0.90;99.90
15749;DHT22;7976;52.526;13.326;2023-11-22T02:57:44;1.00;99.90
15749;DHT22;7976;52.526;13.326;2023-11-22T03:00:11;0.90;99.90
15749;DHT22;7976;52.526;13.326;2023-11-22T03:02:40;0.90;99.90
15749;DHT22;7976;52.526;13.326;2023-11-22T03:05:07;0.90;99.90
15749;DHT22;7976;52.526;13.326;2023-11-22T03:07:35;0.90;99.90
15749;DHT22;7976;52.526;13.326;2023-11-22T03:10:02;0.90;99.90
15749;DHT22;7976;52.526;13.326;2023-11-22T03:12:29;0.80;99.90
15749;DHT22;7976;52.526;13.326;2023-11-22T03:14:59;0.80;99.90
15749;DHT22;7976;52.526;13.326;2023-11-22T03:17:28;0.80;99.90
15749;DHT22;7976;52.526;13.326;2023-11-22T03:19:55;0.70;99.90
15749;DHT22;7976;52.526;13.326;2023-11-22T03:22:23;0.70;99.90
15749;DHT22;7976;52.526;13.326;2023-11-22T03:24:50;0.60;99.90
15749;DHT22;7976;52.526;13.326;2023-11-22T03:27:18;0.70;99.90
15749;DHT22;7976;52.526;13.326;2023-11-22T03:29:47;0.70;99.90
15749;DHT22;7976;52.526;13.326;2023-11-22T03:32:15;0.70;99.90
15749;DHT22;7976;52.526;13.326;2023-11-22T03:34:43;0.70;99.90
15749;DHT22;7976;52.526;13.326;2023-11-22T03:37:10;0.70;99.90
15749;DHT22;7976;52.526;13.326;2023-11-22T03:39:37;0.70;99.90
15749;DHT22;7976;52.526;13.326;2023-11-22T03:42:04;0.70;99.90
15749;DHT22;7976;52.526;13.326;2023-11-22T03:44:32;0.70;99.90
15749;DHT22;7976;52.526;13.326;2023-11-22T03:46:58;0.60;99.90
15749;DHT22;7976;52.526;13.326;2023-11-22T03:49:27;0.60;99.90
15749;DHT22;7976;52.526;13.326;2023-11-22T03:51:53;0.50;99.90
15749;DHT22;7976;52.526;13.326;2023-11-22T03:54:20;0.50;99.90
15749;DHT22;7976;52.526;13.326;2023-11-22T03:56:47;0.50;99.90
15749;DHT22;7976;52.526;13.326;2023-11-22T03:59:14;0.50;99.90
15749;DHT22;7976;52.526;13.326;2023-11-22T04:01:41;0.50;99.90
15749;DHT22;7976;52.526;13.326;2023-11-22T04:04:11;0.50;99.90
15749;DHT22;7976;52.526;13.326;2023-11-22T04:06:39;0.50;99.90
15749;DHT22;7976;52.526;13.326;2023-11-22T04:09:06;0.40;99.90
15749;DHT22;7976;52.526;13.326;2023-11-22T04:11:33;0.50;99.90
15749;DHT22;7976;52.526;13.326;2023-11-22T04:14:00;0.50;99.90
15749;DHT22;7976;52.526;13.326;2023-11-22T04:16:27;0.50;99.90
15749;DHT22;7976;52.526;13.326;2023-11-22T04:18:57;0.40;99.90
15749;DHT22;7976;52.526;13.326;2023-11-22T04:21:24;0.40;99.90
15749;DHT22;7976;52.526;13.326;2023-11-22T04:23:52;0.40;99.90
15749;DHT22;7976;52.526;13.326;2023-11-22T04:26:19;0.40;99.90
15749;DHT22;7976;52.526;13.326;2023-11-22T04:28:47;0.40;99.90
15749;DHT22;7976;52.526;13.326;2023-11-22T04:31:14;0.30;99.90
15749;DHT22;7976;52.526;13.326;2023-11-22T04:33:41;0.30;99.90
15749;DHT22;7976;52.526;13.326;2023-11-22T04:36:08;0.30;99.90
15749;DHT22;7976;52.526;13.326;2023-11-22T04:38:35;0.20;99.90
15749;DHT22;7976;52.526;13.326;2023-11-22T04:41:05;0.20;99.90
15749;DHT22;7976;52.526;13.326;2023-11-22T04:43:36;0.20;99.90
15749;DHT22;7976;52.526;13.326;2023-11-22T04:46:03;0.20;99.90
15749;DHT22;7976;52.526;13.326;2023-11-22T04:48:30;0.20;99.90
15749;DHT22;7976;52.526;13.326;2023-11-22T04:50:57;0.20;99.90
15749;DHT22;7976;52.526;13.326;2023-11-22T04:53:24;0.20;99.90
15749;DHT22;7976;52.526;13.326;2023-11-22T04:55:51;0.20;99.90
15749;DHT22;7976;52.526;13.326;2023-11-22T04:58:19;0.20;99.90
15749;DHT22;7976;52.526;13.326;2023-11-22T05:00:46;0.20;99.90
15749;DHT22;7976;52.526;13.326;2023-11-22T05:03:13;0.20;99.90
15749;DHT22;7976;52.526;13.326;2023-11-22T05:05:40;0.20;99.90
15749;DHT22;7976;52.526;13.326;2023-11-22T05:08:06;0.20;99.90
15749;DHT22;7976;52.526;13.326;2023-11-22T05:10:33;0.20;99.90
15749;DHT22;7976;52.526;13.326;2023-11-22T05:13:00;0.20;99.90
15749;DHT22;7976;52.526;13.326;2023-11-22T05:15:30;0.20;99.90
15749;DHT22;7976;52.526;13.326;2023-11-22T05:17:57;0.20;99.90
15749;DHT22;7976;52.526;13.326;2023-11-22T05:20:23;0.20;99.90
15749;DHT22;7976;52.526;13.326;2023-11-22T05:22:50;0.20;99.90
15749;DHT22;7976;52.526;13.326;2023-11-22T05:25:17;0.20;99.90
15749;DHT22;7976;52.526;13.326;2023-11-22T05:27:45;0.20;99.90
15749;DHT22;7976;52.526;13.326;2023-11-22T05:30:12;0.20;99.90
15749;DHT22;7976;52.526;13.326;2023-11-22T05:32:42;0.20;99.90
15749;DHT22;7976;52.526;13.326;2023-11-22T05:35:09;0.10;99.90
15749;DHT22;7976;52.526;13.326;2023-11-22T05:37:36;0.10;99.90
15749;DHT22;7976;52.526;13.326;2023-11-22T05:40:04;0.10;99.90
15749;DHT22;7976;52.526;13.326;2023-11-22T05:42:32;0.10;99.90
15749;DHT22;7976;52.526;13.326;2023-11-22T05:45:00;0.10;99.90
15749;DHT22;7976;52.526;13.326;2023-11-22T05:47:27;0.10;99.90
15749;DHT22;7976;52.526;13.326;2023-11-22T05:49:55;0.10;99.90
15749;DHT22;7976;52.526;13.326;2023-11-22T05:52:22;0.10;99.90
15749;DHT22;7976;52.526;13.326;2023-11-22T05:54:49;0.10;99.90
15749;DHT22;7976;52.526;13.326;2023-11-22T05:57:16;0.10;99.90
15749;DHT22;7976;52.526;13.326;2023-11-22T05:59:45;0.10;99.90
15749;DHT22;7976;52.526;13.326;2023-11-22T06:02:13;0.10;99.90
15749;DHT22;7976;52.526;13.326;2023-11-22T06:04:40;0.10;99.90
15749;DHT22;7976;52.526;13.326;2023-11-22T06:07:08;0.10;99.90
15749;DHT22;7976;52.526;13.326;2023-11-22T06:09:35;0.10;99.90
15749;DHT22;7976;52.526;13.326;2023-11-22T06:12:03;0.10;99.90
15749;DHT22;7976;52.526;13.326;2023-11-22T06:14:30;0.00;99.90
15749;DHT22;7976;52.526;13.326;2023-11-22T06:16:57;0.00;99.90
15749;DHT22;7976;52.526;13.326;2023-11-22T06:19:24;0.00;99.90
15749;DHT22;7976;52.526;13.326;2023-11-22T06:21:51;0.00;99.90
15749;DHT22;7976;52.526;13.326;2023-11-22T06:24:19;0.00;99.90
15749;DHT22;7976;52.526;13.326;2023-11-22T06:26:46;0.00;99.90
15749;DHT22;7976;52.526;13.326;2023-11-22T06:29:13;0.00;99.90
15749;DHT22;7976;52.526;13.326;2023-11-22T06:31:40;0.00;99.90
15749;DHT22;7976;52.526;13.326;2023-11-22T06:34:07;0.00;99.90
15749;DHT22;7976;52.526;13.326;2023-11-22T06:36:34;0.00;99.90
15749;DHT22;7976;52.526;13.326;2023-11-22T06:39:01;0.00;99.90
15749;DHT22;7976;52.526;13.326;2023-11-22T06:41:31;0.00;99.90
15749;DHT22;7976;52.526;13.326;2023-11-22T06:43:57;0.10;99.90
15749;DHT22;7976;52.526;13.326;2023-11-22T06:46:24;0.10;99.90
15749;DHT22;7976;52.526;13.326;2023-11-22T06:48:51;0.10;99.90
15749;DHT22;7976;52.526;13.326;2023-11-22T06:51:19;0.10;99.90
15749;DHT22;7976;52.526;13.326;2023-11-22T06:53:45;0.00;99.90
15749;DHT22;7976;52.526;13.326;2023-11-22T06:56:12;0.00;99.90
15749;DHT22;7976;52.526;13.326;2023-11-22T06:58:41;-0.10;99.90
15749;DHT22;7976;52.526;13.326;2023-11-22T07:01:08;-0.10;99.90
15749;DHT22;7976;52.526;13.326;2023-11-22T07:03:36;-0.10;99.90
15749;DHT22;7976;52.526;13.326;2023-11-22T07:06:04;-0.20;99.90
15749;DHT22;7976;52.526;13.326;2023-11-22T07:08:33;-0.20;99.90
15749;DHT22;7976;52.526;13.326;2023-11-22T07:11:00;-0.20;99.90
15749;DHT22;7976;52.526;13.326;2023-11-22T07:13:29;-0.20;99.90
15749;DHT22;7976;52.526;13.326;2023-11-22T07:15:57;-0.20;99.90
15749;DHT22;7976;52.526;13.326;2023-11-22T07:18:25;-0.10;99.90
15749;DHT22;7976;52.526;13.326;2023-11-22T07:20:53;-0.10;99.90
15749;DHT22;7976;52.526;13.326;2023-11-22T07:23:20;-0.10;99.90
15749;DHT22;7976;52.526;13.326;2023-11-22T07:25:52;-0.10;99.90
15749;DHT22;7976;52.526;13.326;2023-11-22T07:28:20;0.00;99.90
15749;DHT22;7976;52.526;13.326;2023-11-22T07:30:47;0.00;99.90
15749;DHT22;7976;52.526;13.326;2023-11-22T07:33:16;0.00;99.90
15749;DHT22;7976;52.526;13.326;2023-11-22T07:35:45;0.10;99.90
15749;DHT22;7976;52.526;13.326;2023-11-22T07:38:13;0.10;99.90
15749;DHT22;7976;52.526;13.326;2023-11-22T07:40:39;0.10;99.90
15749;DHT22;7976;52.526;13.326;2023-11-22T07:43:07;0.10;99.90
15749;DHT22;7976;52.526;13.326;2023-11-22T07:45:34;0.20;99.90
15749;DHT22;7976;52.526;13.326;2023-11-22T07:48:03;0.20;99.90
15749;DHT22;7976;52.526;13.326;2023-11-22T07:50:31;0.30;99.90
15749;DHT22;7976;52.526;13.326;2023-11-22T07:52:59;0.30;99.90
15749;DHT22;7976;52.526;13.326;2023-11-22T07:55:28;0.30;99.90
15749;DHT22;7976;52.526;13.326;2023-11-22T07:57:55;0.30;99.90
15749;DHT22;7976;52.526;13.326;2023-11-22T08:00:23;0.30;99.90
15749;DHT22;7976;52.526;13.326;2023-11-22T08:02:49;0.30;99.90
15749;DHT22;7976;52.526;13.326;2023-11-22T08:05:19;0.40;99.90
15749;DHT22;7976;52.526;13.326;2023-11-22T08:07:50;0.30;99.90
15749;DHT22;7976;52.526;13.326;2023-11-22T08:10:17;0.40;99.90
15749;DHT22;7976;52.526;13.326;2023-11-22T08:12:46;0.40;99.90
15749;DHT22;7976;52.526;13.326;2023-11-22T08:15:15;0.40;99.90
15749;DHT22;7976;52.526;13.326;2023-11-22T08:17:43;0.40;99.90
15749;DHT22;7976;52.526;13.326;2023-11-22T08:20:10;0.40;99.90
15749;DHT22;7976;52.526;13.326;2023-11-22T08:22:39;0.40;99.90
15749;DHT22;7976;52.526;13.326;2023-11-22T08:25:08;0.40;99.90
15749;DHT22;7976;52.526;13.326;2023-11-22T08:27:38;0.40;99.90
15749;DHT22;7976;52.526;13.326;2023-11-22T08:30:07;0.50;99.90
15749;DHT22;7976;52.526;13.326;2023-11-22T08:32:39;0.50;99.90
15749;DHT22;7976;52.526;13.326;2023-11-22T08:35:08;0.60;99.90
15749;DHT22;7976;52.526;13.326;2023-11-22T08:37:36;0.60;99.90
15749;DHT22;7976;52.526;13.326;2023-11-22T08:40:10;0.60;99.90
15749;DHT22;7976;52.526;13.326;2023-11-22T08:42:39;0.70;99.90
15749;DHT22;7976;52.526;13.326;2023-11-22T08:45:08;0.70;99.90
15749;DHT22;7976;52.526;13.326;2023-11-22T08:47:37;0.70;99.90
15749;DHT22;7976;52.526;13.326;2023-11-22T08:50:06;0.70;99.90
15749;DHT22;7976;52.526;13.326;2023-11-22T08:52:36;0.70;99.90
15749;DHT22;7976;52.526;13.326;2023-11-22T08:55:05;0.70;99.90
15749;DHT22;7976;52.526;13.326;2023-11-22T08:57:35;0.80;99.90
15749;DHT22;7976;52.526;13.326;2023-11-22T09:00:03;0.80;99.90
15749;DHT22;7976;52.526;13.326;2023-11-22T09:02:34;0.80;99.90
15749;DHT22;7976;52.526;13.326;2023-11-22T09:05:01;0.90;99.90
15749;DHT22;7976;52.526;13.326;2023-11-22T09:07:31;0.90;99.90
15749;DHT22;7976;52.526;13.326;2023-11-22T09:09:58;0.90;99.90
15749;DHT22;7976;52.526;13.326;2023-11-22T09:12:25;1.00;99.90
15749;DHT22;7976;52.526;13.326;2023-11-22T09:14:53;1.00;99.90
15749;DHT22;7976;52.526;13.326;2023-11-22T09:17:20;1.00;99.90
15749;DHT22;7976;52.526;13.326;2023-11-22T09:19:47;1.10;99.90
15749;DHT22;7976;52.526;13.326;2023-11-22T09:22:15;1.10;99.90
15749;DHT22;7976;52.526;13.326;2023-11-22T09:24:43;1.10;99.90
15749;DHT22;7976;52.526;13.326;2023-11-22T09:27:11;1.20;99.90
15749;DHT22;7976;52.526;13.326;2023-11-22T09:29:42;1.20;99.90
15749;DHT22;7976;52.526;13.326;2023-11-22T09:32:10;1.20;99.90
15749;DHT22;7976;52.526;13.326;2023-11-22T09:34:38;1.30;99.90
15749;DHT22;7976;52.526;13.326;2023-11-22T09:37:05;1.30;99.90
15749;DHT22;7976;52.526;13.326;2023-11-22T09:39:33;1.30;99.90
15749;DHT22;7976;52.526;13.326;2023-11-22T09:42:01;1.40;99.90
15749;DHT22;7976;52.526;13.326;2023-11-22T09:44:30;1.40;99.90
15749;DHT22;7976;52.526;13.326;2023-11-22T09:46:57;1.50;99.90
15749;DHT22;7976;52.526;13.326;2023-11-22T09:49:29;1.60;99.90
15749;DHT22;7976;52.526;13.326;2023-11-22T09:52:01;1.60;99.90
15749;DHT22;7976;52.526;13.326;2023-11-22T09:54:30;1.70;99.90
15749;DHT22;7976;52.526;13.326;2023-11-22T09:57:00;1.70;99.90
15749;DHT22;7976;52.526;13.326;2023-11-22T09:59:29;1.70;99.90
15749;DHT22;7976;52.526;13.326;2023-11-22T10:01:58;1.80;99.90
15749;DHT22;7976;52.526;13.326;2023-11-22T10:04:27;1.80;99.90
15749;DHT22;7976;52.526;13.326;2023-11-22T10:06:57;1.90;99.90
15749;DHT22;7976;52.526;13.326;2023-11-22T10:09:25;2.00;99.90
15749;DHT22;7976;52.526;13.326;2023-11-22T10:11:57;2.10;99.90
15749;DHT22;7976;52.526;13.326;2023-11-22T10:14:24;2.30;99.90
15749;DHT22;7976;52.526;13.326;2023-11-22T10:16:58;2.40;99.90
15749;DHT22;7976;52.526;13.326;2023-11-22T10:19:27;2.40;99.90
15749;DHT22;7976;52.526;13.326;2023-11-22T10:22:05;2.40;99.90
15749;DHT22;7976;52.526;13.326;2023-11-22T10:24:34;2.40;99.90
15749;DHT22;7976;52.526;13.326;2023-11-22T10:27:01;2.40;99.90
15749;DHT22;7976;52.526;13.326;2023-11-22T10:29:29;2.40;99.90
15749;DHT22;7976;52.526;13.326;2023-11-22T10:31:56;2.40;99.90
15749;DHT22;7976;52.526;13.326;2023-11-22T10:34:24;2.40;99.90
15749;DHT22;7976;52.526;13.326;2023-11-22T10:36:55;2.40;99.90
15749;DHT22;7976;52.526;13.326;2023-11-22T10:39:22;2.50;99.90
15749;DHT22;7976;52.526;13.326;2023-11-22T10:41:51;2.50;99.90
15749;DHT22;7976;52.526;13.326;2023-11-22T10:44:20;2.50;99.90
15749;DHT22;7976;52.526;13.326;2023-11-22T10:46:48;2.50;99.90
15749;DHT22;7976;52.526;13.326;2023-11-22T10:49:17;2.60;99.90
15749;DHT22;7976;52.526;13.326;2023-11-22T10:51:48;2.50;99.90
15749;DHT22;7976;52.526;13.326;2023-11-22T10:54:20;2.60;99.90
15749;DHT22;7976;52.526;13.326;2023-11-22T10:56:54;2.60;99.90
15749;DHT22;7976;52.526;13.326;2023-11-22T10:59:26;2.60;99.90
15749;DHT22;7976;52.526;13.326;2023-11-22T11:01:56;2.60;99.90
15749;DHT22;7976;52.526;13.326;2023-11-22T11:04:34;2.60;99.90
15749;DHT22;7976;52.526;13.326;2023-11-22T11:07:12;2.60;99.90
15749;DHT22;7976;52.526;13.326;2023-11-22T11:09:45;2.60;99.90
15749;DHT22;7976;52.526;13.326;2023-11-22T11:12:14;2.70;99.90
15749;DHT22;7976;52.526;13.326;2023-11-22T11:14:41;2.70;99.90
15749;DHT22;7976;52.526;13.326;2023-11-22T11:17:11;2.80;99.90
15749;DHT22;7976;52.526;13.326;2023-11-22T11:19:39;2.80;99.90
15749;DHT22;7976;52.526;13.326;2023-11-22T11:22:09;2.90;99.90
15749;DHT22;7976;52.526;13.326;2023-11-22T11:24:40;2.90;99.90
15749;DHT22;7976;52.526;13.326;2023-11-22T11:27:10;2.90;99.90
15749;DHT22;7976;52.526;13.326;2023-11-22T11:29:37;3.00;99.90
15749;DHT22;7976;52.526;13.326;2023-11-22T11:32:10;3.00;99.90
15749;DHT22;7976;52.526;13.326;2023-11-22T11:34:47;3.00;99.90
15749;DHT22;7976;52.526;13.326;2023-11-22T11:37:18;2.90;99.90
15749;DHT22;7976;52.526;13.326;2023-11-22T11:39:46;2.90;99.90
15749;DHT22;7976;52.526;13.326;2023-11-22T11:42:14;2.90;99.90
15749;DHT22;7976;52.526;13.326;2023-11-22T11:44:51;2.90;99.90
15749;DHT22;7976;52.526;13.326;2023-11-22T11:47:31;2.90;99.90
15749;DHT22;7976;52.526;13.326;2023-11-22T11:49:58;2.90;99.90
15749;DHT22;7976;52.526;13.326;2023-11-22T11:52:26;2.90;99.90
15749;DHT22;7976;52.526;13.326;2023-11-22T11:54:53;3.00;99.90
15749;DHT22;7976;52.526;13.326;2023-11-22T11:57:21;3.00;99.90
15749;DHT22;7976;52.526;13.326;2023-11-22T11:59:48;3.00;99.90
15749;DHT22;7976;52.526;13.326;2023-11-22T12:02:16;3.10;99.90
15749;DHT22;7976;52.526;13.326;2023-11-22T12:04:45;3.10;99.90
15749;DHT22;7976;52.526;13.326;2023-11-22T12:07:12;3.10;99.90
15749;DHT22;7976;52.526;13.326;2023-11-22T12:09:40;3.10;99.90
15749;DHT22;7976;52.526;13.326;2023-11-22T12:12:07;3.10;99.90
15749;DHT22;7976;52.526;13.326;2023-11-22T12:14:34;3.10;99.90
15749;DHT22;7976;52.526;13.326;2023-11-22T12:17:01;3.10;99.90
15749;DHT22;7976;52.526;13.326;2023-11-22T12:19:31;3.10;99.90
15749;DHT22;7976;52.526;13.326;2023-11-22T12:21:58;3.10;99.90
15749;DHT22;7976;52.526;13.326;2023-11-22T12:24:25;3.10;99.90
15749;DHT22;7976;52.526;13.326;2023-11-22T12:26:55;3.20;99.90
15749;DHT22;7976;52.526;13.326;2023-11-22T12:29:23;3.20;99.90
15749;DHT22;7976;52.526;13.326;2023-11-22T12:31:51;3.30;99.90
15749;DHT22;7976;52.526;13.326;2023-11-22T12:34:21;3.30;99.90
15749;DHT22;7976;52.526;13.326;2023-11-22T12:36:49;3.30;99.90
15749;DHT22;7976;52.526;13.326;2023-11-22T12:39:16;3.30;99.90
15749;DHT22;7976;52.526;13.326;2023-11-22T12:41:48;3.40;99.90
15749;DHT22;7976;52.526;13.326;2023-11-22T12:44:18;3.40;99.90
15749;DHT22;7976;52.526;13.326;2023-11-22T12:46:47;3.40;99.90
15749;DHT22;7976;52.526;13.326;2023-11-22T12:49:16;3.40;99.90
15749;DHT22;7976;52.526;13.326;2023-11-22T12:51:50;3.50;99.90
15749;DHT22;7976;52.526;13.326;2023-11-22T12:54:18;3.50;99.90
15749;DHT22;7976;52.526;13.326;2023-11-22T12:56:48;3.60;99.90
15749;DHT22;7976;52.526;13.326;2023-11-22T12:59:21;3.60;99.90
15749;DHT22;7976;52.526;13.326;2023-11-22T13:01:48;3.60;99.90
15749;DHT22;7976;52.526;13.326;2023-11-22T13:04:15;3.60;99.90
15749;DHT22;7976;52.526;13.326;2023-11-22T13:06:42;3.60;99.90
15749;DHT22;7976;52.526;13.326;2023-11-22T13:09:09;3.60;99.90
15749;DHT22;7976;52.526;13.326;2023-11-22T13:11:41;3.60;99.90
15749;DHT22;7976;52.526;13.326;2023-11-22T13:14:09;3.60;99.90
15749;DHT22;7976;52.526;13.326;2023-11-22T13:16:40;3.60;99.90
15749;DHT22;7976;52.526;13.326;2023-11-22T13:19:08;3.60;99.90
15749;DHT22;7976;52.526;13.326;2023-11-22T13:21:35;3.60;99.90
15749;DHT22;7976;52.526;13.326;2023-11-22T13:24:02;3.60;99.90
15749;DHT22;7976;52.526;13.326;2023-11-22T13:26:32;3.60;99.90
15749;DHT22;7976;52.526;13.326;2023-11-22T13:28:59;3.60;99.90
15749;DHT22;7976;52.526;13.326;2023-11-22T13:31:26;3.60;99.90
15749;DHT22;7976;52.526;13.326;2023-11-22T13:33:54;3.60;99.90
15749;DHT22;7976;52.526;13.326;2023-11-22T13:36:21;3.70;99.90
15749;DHT22;7976;52.526;13.326;2023-11-22T13:38:48;3.70;99.90
15749;DHT22;7976;52.526;13.326;2023-11-22T13:41:15;3.70;99.90
15749;DHT22;7976;52.526;13.326;2023-11-22T13:43:42;3.70;99.90
15749;DHT22;7976;52.526;13.326;2023-11-22T13:46:12;3.70;99.90
15749;DHT22;7976;52.526;13.326;2023-11-22T13:48:40;3.60;99.90
15749;DHT22;7976;52.526;13.326;2023-11-22T13:51:09;3.60;99.90
15749;DHT22;7976;52.526;13.326;2023-11-22T13:53:36;3.60;99.90
15749;DHT22;7976;52.526;13.326;2023-11-22T13:56:09;3.60;99.90
15749;DHT22;7976;52.526;13.326;2023-11-22T13:58:35;3.60;99.90
15749;DHT22;7976;52.526;13.326;2023-11-22T14:01:03;3.50;99.90
15749;DHT22;7976;52.526;13.326;2023-11-22T14:06:38;3.50;99.90
15749;DHT22;7976;52.526;13.326;2023-11-22T14:09:06;3.40;99.90
15749;DHT22;7976;52.526;13.326;2023-11-22T14:11:34;3.40;99.90
15749;DHT22;7976;52.526;13.326;2023-11-22T14:14:03;3.30;99.90
15749;DHT22;7976;52.526;13.326;2023-11-22T14:16:31;3.30;99.90
15749;DHT22;7976;52.526;13.326;2023-11-22T14:18:59;3.30;99.90
15749;DHT22;7976;52.526;13.326;2023-11-22T14:21:27;3.30;99.90
15749;DHT22;7976;52.526;13.326;2023-11-22T14:23:57;3.30;99.90
15749;DHT22;7976;52.526;13.326;2023-11-22T14:26:25;3.20;99.90
15749;DHT22;7976;52.526;13.326;2023-11-22T14:28:52;3.20;99.90
15749;DHT22;7976;52.526;13.326;2023-11-22T14:31:20;3.20;99.90
15749;DHT22;7976;52.526;13.326;2023-11-22T14:33:47;3.20;99.90
15749;DHT22;7976;52.526;13.326;2023-11-22T14:36:15;3.10;99.90
15749;DHT22;7976;52.526;13.326;2023-11-22T14:38:42;3.10;99.90
15749;DHT22;7976;52.526;13.326;2023-11-22T14:41:11;3.10;99.90
15749;DHT22;7976;52.526;13.326;2023-11-22T14:43:38;3.00;99.90
15749;DHT22;7976;52.526;13.326;2023-11-22T14:46:06;3.00;99.90
15749;DHT22;7976;52.526;13.326;2023-11-22T14:48:35;3.00;99.90
15749;DHT22;7976;52.526;13.326;2023-11-22T14:51:03;2.90;99.90
15749;DHT22;7976;52.526;13.326;2023-11-22T14:53:31;2.90;99.90
15749;DHT22;7976;52.526;13.326;2023-11-22T14:55:58;2.90;99.90
15749;DHT22;7976;52.526;13.326;2023-11-22T14:58:27;2.90;99.90
15749;DHT22;7976;52.526;13.326;2023-11-22T15:01:02;2.90;99.90
15749;DHT22;7976;52.526;13.326;2023-11-22T15:03:34;2.90;99.90
15749;DHT22;7976;52.526;13.326;2023-11-22T15:06:01;2.90;99.90
15749;DHT22;7976;52.526;13.326;2023-11-22T15:08:32;2.90;99.90
15749;DHT22;7976;52.526;13.326;2023-11-22T15:10:59;2.80;99.90
15749;DHT22;7976;52.526;13.326;2023-11-22T15:13:27;2.80;99.90
15749;DHT22;7976;52.526;13.326;2023-11-22T15:15:54;2.80;99.90
15749;DHT22;7976;52.526;13.326;2023-11-22T15:18:22;2.80;99.90
15749;DHT22;7976;52.526;13.326;2023-11-22T15:20:50;2.80;99.90
15749;DHT22;7976;52.526;13.326;2023-11-22T15:23:17;2.80;99.90
15749;DHT22;7976;52.526;13.326;2023-11-22T15:25:52;2.80;99.90
15749;DHT22;7976;52.526;13.326;2023-11-22T15:28:21;2.80;99.90
15749;DHT22;7976;52.526;13.326;2023-11-22T15:30:54;2.80;99.90
15749;DHT22;7976;52.526;13.326;2023-11-22T15:33:25;2.80;99.90
15749;DHT22;7976;52.526;13.326;2023-11-22T15:35:53;2.80;99.90
15749;DHT22;7976;52.526;13.326;2023-11-22T15:38:24;2.80;99.90
15749;DHT22;7976;52.526;13.326;2023-11-22T15:40:53;2.70;99.90
15749;DHT22;7976;52.526;13.326;2023-11-22T15:43:20;2.80;99.90
15749;DHT22;7976;52.526;13.326;2023-11-22T15:45:50;2.80;99.90
15749;DHT22;7976;52.526;13.326;2023-11-22T15:48:20;2.70;99.90
15749;DHT22;7976;52.526;13.326;2023-11-22T15:50:47;2.70;99.90
15749;DHT22;7976;52.526;13.326;2023-11-22T15:53:14;2.70;99.90